createdAt,value
2019-03-08T00:02:07.049Z,8.64
2019-03-08T00:07:10.471Z,8.65
2019-03-08T00:12:13.977Z,8.68
2019-03-08T00:17:17.417Z,8.50
2019-03-08T00:22:20.847Z,8.49
2019-03-08T00:27:24.256Z,8.40
2019-03-08T00:32:27.690Z,8.46
2019-03-08T00:37:31.134Z,8.32
2019-03-08T00:42:35.079Z,8.31
2019-03-08T00:47:38.667Z,8.27
2019-03-08T00:52:42.092Z,8.39
2019-03-08T00:57:47.070Z,8.40
2019-03-08T01:02:50.530Z,8.38
2019-03-08T01:07:53.950Z,8.35
2019-03-08T01:12:57.373Z,8.36
2019-03-08T01:18:00.887Z,8.38
2019-03-08T01:23:04.607Z,8.39
2019-03-08T01:28:12.458Z,8.37
2019-03-08T01:33:16.541Z,8.39
2019-03-08T01:38:20.782Z,8.28
2019-03-08T01:43:24.231Z,8.21
2019-03-08T01:48:27.842Z,8.15
2019-03-08T01:53:31.314Z,8.08
2019-03-08T01:58:34.751Z,7.96
2019-03-08T02:03:38.394Z,7.87
2019-03-08T02:08:41.894Z,7.89
2019-03-08T02:13:45.439Z,7.93
2019-03-08T02:18:48.865Z,7.89
2019-03-08T02:23:52.452Z,7.93
2019-03-08T02:28:55.969Z,7.89
2019-03-08T02:33:59.416Z,7.96
2019-03-08T02:39:03.017Z,7.79
2019-03-08T02:44:06.536Z,7.82
2019-03-08T02:49:10.040Z,7.74
2019-03-08T02:54:13.459Z,7.78
2019-03-08T02:59:17.071Z,7.76
2019-03-08T03:04:20.521Z,7.70
2019-03-08T03:09:23.940Z,7.62
2019-03-08T03:14:27.406Z,7.67
2019-03-08T03:19:30.827Z,7.70
2019-03-08T03:24:34.266Z,7.66
2019-03-08T03:29:37.700Z,7.69
2019-03-08T03:34:41.207Z,7.70
2019-03-08T03:39:44.654Z,7.63
2019-03-08T03:44:48.094Z,7.65
2019-03-08T03:49:51.515Z,7.63
2019-03-08T03:54:54.959Z,7.60
2019-03-08T03:59:58.390Z,7.69
2019-03-08T04:05:01.817Z,7.71
2019-03-08T04:10:20.454Z,7.73
2019-03-08T04:15:23.886Z,7.81
2019-03-08T04:20:27.319Z,7.78
2019-03-08T04:25:30.783Z,7.76
2019-03-08T04:30:34.230Z,7.81
2019-03-08T04:35:37.665Z,7.85
2019-03-08T04:40:41.150Z,7.78
2019-03-08T04:45:44.580Z,7.76
2019-03-08T04:50:48.060Z,7.77
2019-03-08T04:55:51.554Z,7.78
2019-03-08T05:00:54.979Z,7.81
2019-03-08T05:05:58.434Z,7.78
2019-03-08T05:11:01.829Z,7.82
2019-03-08T05:16:05.270Z,7.84
2019-03-08T05:21:08.695Z,7.87
2019-03-08T05:26:12.186Z,7.81
2019-03-08T05:31:15.856Z,7.79
2019-03-08T05:36:19.308Z,7.80
2019-03-08T05:41:22.743Z,7.78
2019-03-08T05:46:26.154Z,7.78
2019-03-08T05:51:29.589Z,7.76
2019-03-08T05:56:33.026Z,7.78
2019-03-08T06:01:39.599Z,7.83
2019-03-08T06:06:43.310Z,7.87
2019-03-08T06:11:46.749Z,7.83
2019-03-08T06:16:50.200Z,7.81
2019-03-08T06:21:53.655Z,7.81
2019-03-08T06:26:57.063Z,7.85
2019-03-08T06:32:00.683Z,7.81
2019-03-08T06:37:04.107Z,7.86
2019-03-08T06:42:07.621Z,7.86
2019-03-08T06:47:11.055Z,7.88
2019-03-08T06:52:14.479Z,7.76
2019-03-08T06:57:17.919Z,7.76
2019-03-08T07:02:22.114Z,7.77
2019-03-08T07:07:25.566Z,7.80
2019-03-08T07:12:29.107Z,7.83
2019-03-08T07:17:32.638Z,7.86
2019-03-08T07:22:46.925Z,7.81
2019-03-08T07:27:52.016Z,7.86
2019-03-08T07:32:59.526Z,7.78
2019-03-08T07:38:10.553Z,7.81
2019-03-08T07:48:47.783Z,7.88
2019-03-08T07:53:52.871Z,7.85
2019-03-08T07:58:57.931Z,7.92
2019-03-08T08:09:25.477Z,8.07
2019-03-08T08:14:40.008Z,8.06
2019-03-08T08:19:48.042Z,8.08
2019-03-08T08:24:55.792Z,8.05
2019-03-08T08:30:12.624Z,8.10
2019-03-08T08:35:17.707Z,8.14
2019-03-08T08:40:22.820Z,8.13
2019-03-08T08:50:53.122Z,7.82
2019-03-08T08:56:14.239Z,7.47
2019-03-08T09:01:28.159Z,7.07
2019-03-08T09:06:35.802Z,6.80
2019-03-08T09:11:45.884Z,6.68
2019-03-08T09:16:47.714Z,6.45
2019-03-08T09:21:58.671Z,6.18
2019-03-08T09:27:12.542Z,6.17
2019-03-08T09:32:17.604Z,6.31
2019-03-08T09:37:34.661Z,6.46
2019-03-08T09:42:45.480Z,6.71
2019-03-08T09:53:07.141Z,7.25
2019-03-08T09:58:21.025Z,7.42
2019-03-08T10:03:26.102Z,7.85
2019-03-08T10:08:43.120Z,8.05
2019-03-08T10:13:51.277Z,8.35
2019-03-08T10:19:14.575Z,8.54
2019-03-08T10:24:22.390Z,8.56
2019-03-08T10:29:30.162Z,8.82
2019-03-08T10:34:41.110Z,9.76
2019-03-08T10:45:02.412Z,10.76
2019-03-08T10:50:13.108Z,11.05
2019-03-08T10:55:34.442Z,11.81
2019-03-08T11:00:39.538Z,12.51
2019-03-08T11:06:00.731Z,12.83
2019-03-08T11:11:08.491Z,13.42
2019-03-08T11:16:13.961Z,13.31
2019-03-08T11:27:13.177Z,13.68
2019-03-08T11:32:36.268Z,13.24
2019-03-08T11:37:43.794Z,13.35
2019-03-08T11:42:54.959Z,14.01
2019-03-08T11:48:17.115Z,14.27
2019-03-08T11:53:24.849Z,13.13
2019-03-08T11:58:44.833Z,11.67
2019-03-08T12:03:52.784Z,11.22
2019-03-08T12:09:06.359Z,11.30
2019-03-08T12:14:20.732Z,11.63
2019-03-08T12:19:26.120Z,11.57
2019-03-08T12:24:31.213Z,11.35
2019-03-08T12:29:36.277Z,10.92
2019-03-08T12:34:44.230Z,11.07
2019-03-08T12:39:51.862Z,10.99
2019-03-08T12:45:26.666Z,10.95
2019-03-08T12:50:59.352Z,10.38
2019-03-08T13:08:01.633Z,9.04
2019-03-08T13:13:05.317Z,9.24
2019-03-08T13:18:08.815Z,10.56
2019-03-08T13:23:12.271Z,10.44
2019-03-08T13:28:15.761Z,9.97
2019-03-08T13:39:18.339Z,9.86
2019-03-08T13:44:59.889Z,9.72
2019-03-08T13:56:30.600Z,9.71
2019-03-08T14:01:34.154Z,9.72
2019-03-08T14:06:37.611Z,9.61
2019-03-08T14:11:41.069Z,9.55
2019-03-08T14:16:44.458Z,9.32
2019-03-08T14:21:47.899Z,9.87
2019-03-08T14:26:51.322Z,10.99
2019-03-08T14:31:56.568Z,11.74
2019-03-08T14:37:00.005Z,12.30
2019-03-08T14:42:15.669Z,11.79
2019-03-08T14:47:24.458Z,11.21
2019-03-08T14:52:32.170Z,10.42
2019-03-08T14:57:35.531Z,9.80
2019-03-08T15:02:39.205Z,9.99
2019-03-08T15:07:44.172Z,10.39
2019-03-08T15:12:49.484Z,10.35
2019-03-08T15:17:53.513Z,10.28
2019-03-08T15:34:10.409Z,9.70
2019-03-08T15:39:13.821Z,9.94
2019-03-08T15:44:17.258Z,10.02
2019-03-08T15:49:20.695Z,9.91
2019-03-08T15:54:24.161Z,9.78
2019-03-08T15:59:27.784Z,9.76
2019-03-08T16:04:31.244Z,9.72
2019-03-08T16:09:36.309Z,9.88
2019-03-08T16:14:39.822Z,9.86
2019-03-08T16:19:43.250Z,9.73
2019-03-08T16:24:46.693Z,9.64
2019-03-08T16:29:50.244Z,9.51
2019-03-08T16:34:53.439Z,9.33
2019-03-08T16:45:33.437Z,9.12
2019-03-08T16:50:50.409Z,9.01
2019-03-08T16:56:03.113Z,8.90
2019-03-08T17:01:10.683Z,8.75
2019-03-08T17:06:31.079Z,8.56
2019-03-08T17:11:36.155Z,8.47
2019-03-08T17:16:50.247Z,8.42
2019-03-08T17:22:13.598Z,8.33
2019-03-08T17:27:33.403Z,8.31
2019-03-08T17:32:38.514Z,8.19
2019-03-08T17:37:49.543Z,8.08
2019-03-08T17:42:54.618Z,8.08
2019-03-08T17:48:02.389Z,8.02
2019-03-08T17:53:07.452Z,7.99
2019-03-08T17:58:30.691Z,7.98
2019-03-08T18:03:38.809Z,7.94
2019-03-08T18:08:52.938Z,7.93
2019-03-08T18:13:58.009Z,7.95
2019-03-08T18:19:03.076Z,7.90
2019-03-08T18:24:10.985Z,7.96
2019-03-08T18:29:17.566Z,8.01
2019-03-08T18:34:25.216Z,8.02
2019-03-08T18:39:42.173Z,8.08
2019-03-08T18:44:50.833Z,8.12
2019-03-08T18:49:58.671Z,8.12
2019-03-08T18:55:22.506Z,8.13
2019-03-08T19:22:43.297Z,8.00
2019-03-08T19:33:54.893Z,7.92
2019-03-08T19:39:15.075Z,7.97
2019-03-08T19:44:31.920Z,7.96
2019-03-08T19:49:53.929Z,7.98
2019-03-08T19:55:02.695Z,7.97
2019-03-08T20:00:25.620Z,7.97
2019-03-08T20:05:46.674Z,7.91
2019-03-08T20:27:54.269Z,8.12
2019-03-08T20:33:10.481Z,7.94
2019-03-08T20:38:33.733Z,7.77
2019-03-08T20:43:41.547Z,7.65
2019-03-08T20:48:45.025Z,7.59
2019-03-08T20:53:48.834Z,7.51
2019-03-08T20:58:52.359Z,7.45
2019-03-08T21:03:57.941Z,7.42
2019-03-08T21:09:01.560Z,7.32
2019-03-08T21:14:05.378Z,7.36
2019-03-08T21:19:08.824Z,7.39
2019-03-08T21:24:15.299Z,7.35
2019-03-08T21:29:20.305Z,7.31
2019-03-08T21:34:23.725Z,7.30
2019-03-08T21:39:27.173Z,7.24
2019-03-08T21:44:30.606Z,7.20
2019-03-08T21:49:34.113Z,7.25
2019-03-08T21:54:38.551Z,7.37
2019-03-08T21:59:41.961Z,7.42
2019-03-08T22:04:47.059Z,7.45
2019-03-08T22:09:52.390Z,7.48
2019-03-08T22:14:57.655Z,7.59
2019-03-08T22:20:04.722Z,7.66
2019-03-08T22:25:08.921Z,7.63
2019-03-08T22:30:17.632Z,7.65
2019-03-08T22:35:21.449Z,7.60
2019-03-08T22:40:25.170Z,7.65
2019-03-08T22:45:28.731Z,7.65
2019-03-08T22:50:33.213Z,7.63
2019-03-08T22:55:36.567Z,7.62
2019-03-08T23:00:53.971Z,7.56
2019-03-08T23:05:57.419Z,7.62
2019-03-08T23:11:01.076Z,7.53
2019-03-08T23:16:04.521Z,7.54
2019-03-08T23:21:07.950Z,7.55
2019-03-08T23:26:11.416Z,7.62
2019-03-08T23:31:25.112Z,7.56
2019-03-08T23:36:30.212Z,7.67
2019-03-08T23:41:33.628Z,7.69
2019-03-08T23:46:37.073Z,7.71
2019-03-08T23:51:40.516Z,7.67
2019-03-08T23:56:43.945Z,7.71
